sensor_id;sensor_type;location;lat;lon;timestamp;P1;durP1;ratioP1;P2;durP2;ratioP2
41305;SDS011;27051;50.376;19.152;2023-02-13T00:00:11;129.80;;;61.00;;
41305;SDS011;27051;50.376;19.152;2023-02-13T00:03:02;123.20;;;58.60;;
41305;SDS011;27051;50.376;19.152;2023-02-13T00:05:29;125.20;;;58.90;;
41305;SDS011;27051;50.376;19.152;2023-02-13T00:07:55;121.90;;;56.50;;
41305;SDS011;27051;50.376;19.152;2023-02-13T00:10:21;119.60;;;59.30;;
41305;SDS011;27051;50.376;19.152;2023-02-13T00:12:47;120.80;;;58.10;;
41305;SDS011;27051;50.376;19.152;2023-02-13T00:15:14;124.90;;;59.70;;
41305;SDS011;27051;50.376;19.152;2023-02-13T00:17:40;118.50;;;60.00;;
41305;SDS011;27051;50.376;19.152;2023-02-13T00:20:06;118.50;;;56.60;;
41305;SDS011;27051;50.376;19.152;2023-02-13T00:22:36;111.70;;;57.70;;
41305;SDS011;27051;50.376;19.152;2023-02-13T00:25:04;112.40;;;55.70;;
41305;SDS011;27051;50.376;19.152;2023-02-13T00:27:31;123.30;;;58.60;;
41305;SDS011;27051;50.376;19.152;2023-02-13T00:29:57;116.50;;;57.40;;
41305;SDS011;27051;50.376;19.152;2023-02-13T00:32:23;108.70;;;55.80;;
41305;SDS011;27051;50.376;19.152;2023-02-13T00:34:49;114.60;;;54.70;;
41305;SDS011;27051;50.376;19.152;2023-02-13T00:37:16;109.20;;;54.70;;
41305;SDS011;27051;50.376;19.152;2023-02-13T00:39:42;115.40;;;54.40;;
41305;SDS011;27051;50.376;19.152;2023-02-13T00:42:08;110.90;;;55.90;;
41305;SDS011;27051;50.376;19.152;2023-02-13T00:44:34;117.00;;;57.90;;
41305;SDS011;27051;50.376;19.152;2023-02-13T00:47:00;118.80;;;56.90;;
41305;SDS011;27051;50.376;19.152;2023-02-13T00:49:26;130.10;;;56.70;;
41305;SDS011;27051;50.376;19.152;2023-02-13T00:51:53;114.30;;;54.90;;
41305;SDS011;27051;50.376;19.152;2023-02-13T00:54:19;121.80;;;54.70;;
41305;SDS011;27051;50.376;19.152;2023-02-13T00:56:45;137.50;;;62.10;;
41305;SDS011;27051;50.376;19.152;2023-02-13T00:59:11;118.50;;;59.50;;
41305;SDS011;27051;50.376;19.152;2023-02-13T01:01:37;119.50;;;59.80;;
41305;SDS011;27051;50.376;19.152;2023-02-13T01:04:04;114.00;;;55.90;;
41305;SDS011;27051;50.376;19.152;2023-02-13T01:06:30;120.30;;;58.30;;
41305;SDS011;27051;50.376;19.152;2023-02-13T01:08:56;119.10;;;57.80;;
41305;SDS011;27051;50.376;19.152;2023-02-13T01:11:22;115.10;;;54.20;;
41305;SDS011;27051;50.376;19.152;2023-02-13T01:13:48;110.70;;;54.30;;
41305;SDS011;27051;50.376;19.152;2023-02-13T01:16:15;112.30;;;54.40;;
41305;SDS011;27051;50.376;19.152;2023-02-13T01:18:41;108.30;;;53.40;;
41305;SDS011;27051;50.376;19.152;2023-02-13T01:21:08;118.20;;;55.30;;
41305;SDS011;27051;50.376;19.152;2023-02-13T01:23:41;117.20;;;55.80;;
41305;SDS011;27051;50.376;19.152;2023-02-13T01:26:23;123.10;;;56.10;;
41305;SDS011;27051;50.376;19.152;2023-02-13T01:28:53;114.80;;;56.70;;
41305;SDS011;27051;50.376;19.152;2023-02-13T01:31:20;112.50;;;56.00;;
41305;SDS011;27051;50.376;19.152;2023-02-13T01:33:46;113.70;;;53.50;;
41305;SDS011;27051;50.376;19.152;2023-02-13T01:36:12;112.70;;;53.10;;
41305;SDS011;27051;50.376;19.152;2023-02-13T01:38:39;104.00;;;52.20;;
41305;SDS011;27051;50.376;19.152;2023-02-13T01:41:06;111.70;;;53.00;;
41305;SDS011;27051;50.376;19.152;2023-02-13T01:46:40;101.80;;;50.70;;
41305;SDS011;27051;50.376;19.152;2023-02-13T01:49:17;104.70;;;52.00;;
41305;SDS011;27051;50.376;19.152;2023-02-13T01:51:48;106.50;;;53.50;;
41305;SDS011;27051;50.376;19.152;2023-02-13T01:54:20;108.90;;;54.40;;
41305;SDS011;27051;50.376;19.152;2023-02-13T01:57:04;112.80;;;55.40;;
41305;SDS011;27051;50.376;19.152;2023-02-13T01:59:48;107.20;;;52.70;;
41305;SDS011;27051;50.376;19.152;2023-02-13T02:02:18;108.10;;;52.60;;
41305;SDS011;27051;50.376;19.152;2023-02-13T02:04:45;116.60;;;55.20;;
41305;SDS011;27051;50.376;19.152;2023-02-13T02:07:18;116.60;;;52.90;;
41305;SDS011;27051;50.376;19.152;2023-02-13T02:09:48;115.90;;;55.40;;
41305;SDS011;27051;50.376;19.152;2023-02-13T02:15:24;117.30;;;55.40;;
41305;SDS011;27051;50.376;19.152;2023-02-13T02:17:50;120.50;;;55.50;;
41305;SDS011;27051;50.376;19.152;2023-02-13T02:32:02;108.80;;;53.00;;
41305;SDS011;27051;50.376;19.152;2023-02-13T02:34:42;104.00;;;50.00;;
41305;SDS011;27051;50.376;19.152;2023-02-13T02:45:55;109.10;;;53.80;;
41305;SDS011;27051;50.376;19.152;2023-02-13T02:48:39;105.40;;;48.90;;
41305;SDS011;27051;50.376;19.152;2023-02-13T02:54:08;122.40;;;57.00;;
41305;SDS011;27051;50.376;19.152;2023-02-13T02:56:40;108.10;;;51.20;;
41305;SDS011;27051;50.376;19.152;2023-02-13T02:59:20;114.20;;;52.20;;
41305;SDS011;27051;50.376;19.152;2023-02-13T03:01:50;107.90;;;51.40;;
41305;SDS011;27051;50.376;19.152;2023-02-13T03:04:41;111.20;;;51.70;;
41305;SDS011;27051;50.376;19.152;2023-02-13T03:07:07;112.90;;;53.50;;
41305;SDS011;27051;50.376;19.152;2023-02-13T03:09:38;117.70;;;54.10;;
41305;SDS011;27051;50.376;19.152;2023-02-13T03:12:07;119.20;;;54.20;;
41305;SDS011;27051;50.376;19.152;2023-02-13T03:14:34;114.40;;;55.20;;
41305;SDS011;27051;50.376;19.152;2023-02-13T03:17:00;119.40;;;54.60;;
41305;SDS011;27051;50.376;19.152;2023-02-13T03:19:30;122.00;;;56.70;;
41305;SDS011;27051;50.376;19.152;2023-02-13T03:25:20;125.90;;;57.60;;
41305;SDS011;27051;50.376;19.152;2023-02-13T03:28:00;126.60;;;56.20;;
41305;SDS011;27051;50.376;19.152;2023-02-13T03:30:35;108.60;;;50.90;;
41305;SDS011;27051;50.376;19.152;2023-02-13T03:33:29;108.60;;;52.20;;
41305;SDS011;27051;50.376;19.152;2023-02-13T03:41:13;97.20;;;44.70;;
41305;SDS011;27051;50.376;19.152;2023-02-13T03:44:15;101.60;;;44.50;;
41305;SDS011;27051;50.376;19.152;2023-02-13T03:46:48;93.10;;;45.80;;
41305;SDS011;27051;50.376;19.152;2023-02-13T03:49:25;88.50;;;43.10;;
41305;SDS011;27051;50.376;19.152;2023-02-13T03:51:57;91.10;;;41.90;;
41305;SDS011;27051;50.376;19.152;2023-02-13T03:54:33;86.70;;;39.60;;
41305;SDS011;27051;50.376;19.152;2023-02-13T03:57:06;80.60;;;38.80;;
41305;SDS011;27051;50.376;19.152;2023-02-13T03:59:34;83.30;;;38.00;;
41305;SDS011;27051;50.376;19.152;2023-02-13T04:02:04;81.50;;;39.10;;
41305;SDS011;27051;50.376;19.152;2023-02-13T04:05:03;74.90;;;35.70;;
41305;SDS011;27051;50.376;19.152;2023-02-13T04:07:33;75.80;;;35.20;;
41305;SDS011;27051;50.376;19.152;2023-02-13T04:10:02;74.90;;;35.30;;
41305;SDS011;27051;50.376;19.152;2023-02-13T04:15:38;69.00;;;33.80;;
41305;SDS011;27051;50.376;19.152;2023-02-13T04:20:45;71.10;;;35.20;;
41305;SDS011;27051;50.376;19.152;2023-02-13T04:23:11;68.40;;;34.10;;
41305;SDS011;27051;50.376;19.152;2023-02-13T04:25:39;71.80;;;34.20;;
41305;SDS011;27051;50.376;19.152;2023-02-13T04:28:07;69.10;;;33.50;;
41305;SDS011;27051;50.376;19.152;2023-02-13T04:30:34;66.90;;;32.00;;
41305;SDS011;27051;50.376;19.152;2023-02-13T04:33:00;63.70;;;31.20;;
41305;SDS011;27051;50.376;19.152;2023-02-13T04:35:27;69.90;;;32.00;;
41305;SDS011;27051;50.376;19.152;2023-02-13T04:37:59;69.40;;;31.70;;
41305;SDS011;27051;50.376;19.152;2023-02-13T04:40:25;71.00;;;35.80;;
41305;SDS011;27051;50.376;19.152;2023-02-13T04:42:52;70.30;;;32.50;;
41305;SDS011;27051;50.376;19.152;2023-02-13T04:45:18;63.00;;;32.10;;
41305;SDS011;27051;50.376;19.152;2023-02-13T04:47:51;68.30;;;33.50;;
41305;SDS011;27051;50.376;19.152;2023-02-13T04:50:18;68.80;;;33.00;;
41305;SDS011;27051;50.376;19.152;2023-02-13T04:52:45;73.90;;;35.80;;
41305;SDS011;27051;50.376;19.152;2023-02-13T04:55:12;74.70;;;35.10;;
41305;SDS011;27051;50.376;19.152;2023-02-13T04:57:38;69.30;;;33.90;;
41305;SDS011;27051;50.376;19.152;2023-02-13T05:00:05;66.10;;;33.50;;
41305;SDS011;27051;50.376;19.152;2023-02-13T05:02:32;66.50;;;30.90;;
41305;SDS011;27051;50.376;19.152;2023-02-13T05:04:58;61.60;;;30.00;;
41305;SDS011;27051;50.376;19.152;2023-02-13T05:07:24;63.30;;;30.60;;
41305;SDS011;27051;50.376;19.152;2023-02-13T05:09:50;58.30;;;29.30;;
41305;SDS011;27051;50.376;19.152;2023-02-13T05:12:17;63.10;;;31.10;;
41305;SDS011;27051;50.376;19.152;2023-02-13T05:14:43;63.50;;;32.50;;
41305;SDS011;27051;50.376;19.152;2023-02-13T05:17:09;70.80;;;36.90;;
41305;SDS011;27051;50.376;19.152;2023-02-13T05:19:35;75.10;;;37.80;;
41305;SDS011;27051;50.376;19.152;2023-02-13T05:22:01;64.60;;;32.20;;
41305;SDS011;27051;50.376;19.152;2023-02-13T05:24:27;63.00;;;30.20;;
41305;SDS011;27051;50.376;19.152;2023-02-13T05:27:00;64.10;;;30.40;;
41305;SDS011;27051;50.376;19.152;2023-02-13T05:31:53;62.90;;;29.00;;
41305;SDS011;27051;50.376;19.152;2023-02-13T05:34:21;67.70;;;31.20;;
41305;SDS011;27051;50.376;19.152;2023-02-13T05:36:48;66.60;;;29.90;;
41305;SDS011;27051;50.376;19.152;2023-02-13T05:39:15;67.50;;;31.70;;
41305;SDS011;27051;50.376;19.152;2023-02-13T05:41:42;64.80;;;31.00;;
41305;SDS011;27051;50.376;19.152;2023-02-13T05:44:09;66.00;;;30.40;;
41305;SDS011;27051;50.376;19.152;2023-02-13T05:46:36;79.60;;;34.20;;
41305;SDS011;27051;50.376;19.152;2023-02-13T05:49:04;66.50;;;31.60;;
41305;SDS011;27051;50.376;19.152;2023-02-13T05:51:31;69.40;;;33.00;;
41305;SDS011;27051;50.376;19.152;2023-02-13T05:53:57;73.50;;;34.60;;
41305;SDS011;27051;50.376;19.152;2023-02-13T05:56:23;69.90;;;33.90;;
41305;SDS011;27051;50.376;19.152;2023-02-13T05:58:50;77.00;;;34.70;;
41305;SDS011;27051;50.376;19.152;2023-02-13T06:01:17;77.20;;;35.20;;
41305;SDS011;27051;50.376;19.152;2023-02-13T06:03:43;71.00;;;33.50;;
41305;SDS011;27051;50.376;19.152;2023-02-13T06:06:09;68.60;;;33.00;;
41305;SDS011;27051;50.376;19.152;2023-02-13T06:08:36;73.80;;;33.00;;
41305;SDS011;27051;50.376;19.152;2023-02-13T06:11:02;71.40;;;32.20;;
41305;SDS011;27051;50.376;19.152;2023-02-13T06:13:29;65.50;;;32.60;;
41305;SDS011;27051;50.376;19.152;2023-02-13T06:15:55;68.40;;;31.40;;
41305;SDS011;27051;50.376;19.152;2023-02-13T06:18:22;64.10;;;29.40;;
41305;SDS011;27051;50.376;19.152;2023-02-13T06:20:48;70.20;;;31.70;;
41305;SDS011;27051;50.376;19.152;2023-02-13T06:23:14;64.10;;;30.00;;
41305;SDS011;27051;50.376;19.152;2023-02-13T06:25:40;67.60;;;31.50;;
41305;SDS011;27051;50.376;19.152;2023-02-13T06:28:07;65.30;;;29.40;;
41305;SDS011;27051;50.376;19.152;2023-02-13T06:30:33;67.30;;;31.80;;
41305;SDS011;27051;50.376;19.152;2023-02-13T06:32:59;69.30;;;31.70;;
41305;SDS011;27051;50.376;19.152;2023-02-13T06:35:25;61.60;;;30.80;;
41305;SDS011;27051;50.376;19.152;2023-02-13T06:37:51;61.40;;;30.70;;
41305;SDS011;27051;50.376;19.152;2023-02-13T06:40:18;57.60;;;29.30;;
41305;SDS011;27051;50.376;19.152;2023-02-13T06:42:44;61.90;;;30.30;;
41305;SDS011;27051;50.376;19.152;2023-02-13T06:45:11;67.00;;;32.20;;
41305;SDS011;27051;50.376;19.152;2023-02-13T06:47:41;69.20;;;32.00;;
41305;SDS011;27051;50.376;19.152;2023-02-13T06:50:09;64.80;;;30.30;;
41305;SDS011;27051;50.376;19.152;2023-02-13T06:52:36;68.30;;;32.30;;
41305;SDS011;27051;50.376;19.152;2023-02-13T06:55:03;73.60;;;32.10;;
41305;SDS011;27051;50.376;19.152;2023-02-13T06:57:30;70.80;;;32.10;;
41305;SDS011;27051;50.376;19.152;2023-02-13T06:59:56;70.30;;;32.90;;
41305;SDS011;27051;50.376;19.152;2023-02-13T07:02:22;69.00;;;32.60;;
41305;SDS011;27051;50.376;19.152;2023-02-13T07:04:49;74.50;;;32.40;;
41305;SDS011;27051;50.376;19.152;2023-02-13T07:07:15;68.00;;;31.70;;
41305;SDS011;27051;50.376;19.152;2023-02-13T07:09:41;72.60;;;32.20;;
41305;SDS011;27051;50.376;19.152;2023-02-13T07:12:07;67.00;;;32.90;;
41305;SDS011;27051;50.376;19.152;2023-02-13T07:14:33;65.80;;;32.00;;
41305;SDS011;27051;50.376;19.152;2023-02-13T07:17:00;66.70;;;31.30;;
41305;SDS011;27051;50.376;19.152;2023-02-13T07:19:26;64.80;;;30.70;;
41305;SDS011;27051;50.376;19.152;2023-02-13T07:21:52;67.50;;;31.30;;
41305;SDS011;27051;50.376;19.152;2023-02-13T07:24:18;59.00;;;27.50;;
41305;SDS011;27051;50.376;19.152;2023-02-13T07:26:44;59.70;;;29.80;;
41305;SDS011;27051;50.376;19.152;2023-02-13T07:29:11;56.40;;;27.00;;
41305;SDS011;27051;50.376;19.152;2023-02-13T07:31:38;63.20;;;28.70;;
41305;SDS011;27051;50.376;19.152;2023-02-13T07:34:05;70.20;;;31.60;;
41305;SDS011;27051;50.376;19.152;2023-02-13T07:36:32;63.90;;;31.20;;
41305;SDS011;27051;50.376;19.152;2023-02-13T07:38:58;68.00;;;32.70;;
41305;SDS011;27051;50.376;19.152;2023-02-13T07:41:24;68.80;;;30.90;;
41305;SDS011;27051;50.376;19.152;2023-02-13T07:43:50;66.50;;;31.00;;
41305;SDS011;27051;50.376;19.152;2023-02-13T07:46:16;62.10;;;29.50;;
41305;SDS011;27051;50.376;19.152;2023-02-13T07:48:43;64.90;;;31.30;;
41305;SDS011;27051;50.376;19.152;2023-02-13T07:51:10;61.00;;;29.30;;
41305;SDS011;27051;50.376;19.152;2023-02-13T07:53:36;59.70;;;29.30;;
41305;SDS011;27051;50.376;19.152;2023-02-13T07:56:05;62.00;;;29.00;;
41305;SDS011;27051;50.376;19.152;2023-02-13T07:58:32;65.70;;;32.00;;
41305;SDS011;27051;50.376;19.152;2023-02-13T08:01:04;64.10;;;31.10;;
41305;SDS011;27051;50.376;19.152;2023-02-13T08:03:35;68.50;;;34.10;;
41305;SDS011;27051;50.376;19.152;2023-02-13T08:06:02;72.10;;;35.50;;
41305;SDS011;27051;50.376;19.152;2023-02-13T08:08:29;70.50;;;34.90;;
41305;SDS011;27051;50.376;19.152;2023-02-13T08:10:55;82.90;;;39.30;;
41305;SDS011;27051;50.376;19.152;2023-02-13T08:13:22;67.50;;;34.30;;
41305;SDS011;27051;50.376;19.152;2023-02-13T08:15:48;78.70;;;38.30;;
41305;SDS011;27051;50.376;19.152;2023-02-13T08:18:14;73.20;;;34.90;;
41305;SDS011;27051;50.376;19.152;2023-02-13T08:20:39;70.00;;;31.60;;
41305;SDS011;27051;50.376;19.152;2023-02-13T08:23:06;64.20;;;31.10;;
41305;SDS011;27051;50.376;19.152;2023-02-13T08:25:35;62.60;;;30.30;;
41305;SDS011;27051;50.376;19.152;2023-02-13T08:28:02;68.90;;;33.70;;
41305;SDS011;27051;50.376;19.152;2023-02-13T08:30:28;68.00;;;34.40;;
41305;SDS011;27051;50.376;19.152;2023-02-13T08:32:55;76.20;;;34.70;;
41305;SDS011;27051;50.376;19.152;2023-02-13T08:35:22;73.60;;;35.90;;
41305;SDS011;27051;50.376;19.152;2023-02-13T08:37:50;71.00;;;34.10;;
41305;SDS011;27051;50.376;19.152;2023-02-13T08:40:16;70.50;;;35.10;;
41305;SDS011;27051;50.376;19.152;2023-02-13T08:42:42;78.40;;;34.80;;
41305;SDS011;27051;50.376;19.152;2023-02-13T08:45:08;72.10;;;36.20;;
41305;SDS011;27051;50.376;19.152;2023-02-13T08:47:34;73.90;;;38.50;;
41305;SDS011;27051;50.376;19.152;2023-02-13T08:50:00;68.80;;;35.70;;
41305;SDS011;27051;50.376;19.152;2023-02-13T08:52:26;73.50;;;37.10;;
41305;SDS011;27051;50.376;19.152;2023-02-13T08:54:53;72.10;;;33.60;;
41305;SDS011;27051;50.376;19.152;2023-02-13T08:57:19;74.20;;;36.00;;
41305;SDS011;27051;50.376;19.152;2023-02-13T08:59:45;74.10;;;35.90;;
41305;SDS011;27051;50.376;19.152;2023-02-13T09:02:11;73.10;;;35.60;;
41305;SDS011;27051;50.376;19.152;2023-02-13T09:04:38;72.80;;;35.50;;
41305;SDS011;27051;50.376;19.152;2023-02-13T09:07:04;62.80;;;33.50;;
41305;SDS011;27051;50.376;19.152;2023-02-13T09:09:30;74.30;;;35.30;;
41305;SDS011;27051;50.376;19.152;2023-02-13T09:11:57;62.10;;;31.70;;
41305;SDS011;27051;50.376;19.152;2023-02-13T09:14:23;66.00;;;33.40;;
41305;SDS011;27051;50.376;19.152;2023-02-13T09:16:50;66.90;;;33.80;;
41305;SDS011;27051;50.376;19.152;2023-02-13T09:19:16;59.10;;;30.10;;
41305;SDS011;27051;50.376;19.152;2023-02-13T09:21:42;53.10;;;29.10;;
41305;SDS011;27051;50.376;19.152;2023-02-13T09:24:09;55.10;;;28.50;;
41305;SDS011;27051;50.376;19.152;2023-02-13T09:26:35;51.80;;;27.10;;
41305;SDS011;27051;50.376;19.152;2023-02-13T09:29:02;49.00;;;27.70;;
41305;SDS011;27051;50.376;19.152;2023-02-13T09:31:28;54.00;;;28.30;;
41305;SDS011;27051;50.376;19.152;2023-02-13T09:33:54;49.00;;;25.30;;
41305;SDS011;27051;50.376;19.152;2023-02-13T09:36:21;70.10;;;33.50;;
41305;SDS011;27051;50.376;19.152;2023-02-13T09:38:52;61.20;;;32.60;;
41305;SDS011;27051;50.376;19.152;2023-02-13T09:41:24;58.50;;;29.70;;
41305;SDS011;27051;50.376;19.152;2023-02-13T09:46:23;52.60;;;29.90;;
41305;SDS011;27051;50.376;19.152;2023-02-13T09:49:01;57.10;;;30.30;;
41305;SDS011;27051;50.376;19.152;2023-02-13T09:51:34;55.20;;;31.40;;
41305;SDS011;27051;50.376;19.152;2023-02-13T09:54:05;49.40;;;28.50;;
41305;SDS011;27051;50.376;19.152;2023-02-13T09:56:39;49.10;;;28.90;;
41305;SDS011;27051;50.376;19.152;2023-02-13T10:02:22;54.60;;;33.80;;
41305;SDS011;27051;50.376;19.152;2023-02-13T10:08:07;51.40;;;27.90;;
41305;SDS011;27051;50.376;19.152;2023-02-13T10:21:43;56.40;;;30.60;;
41305;SDS011;27051;50.376;19.152;2023-02-13T10:24:20;56.20;;;28.50;;
41305;SDS011;27051;50.376;19.152;2023-02-13T10:27:13;51.50;;;27.30;;
41305;SDS011;27051;50.376;19.152;2023-02-13T10:32:14;37.90;;;21.40;;
41305;SDS011;27051;50.376;19.152;2023-02-13T10:34:45;37.20;;;21.00;;
41305;SDS011;27051;50.376;19.152;2023-02-13T10:37:16;42.90;;;22.80;;
41305;SDS011;27051;50.376;19.152;2023-02-13T10:39:44;40.50;;;21.60;;
41305;SDS011;27051;50.376;19.152;2023-02-13T10:42:26;40.60;;;21.10;;
41305;SDS011;27051;50.376;19.152;2023-02-13T10:50:40;30.00;;;17.30;;
41305;SDS011;27051;50.376;19.152;2023-02-13T10:53:18;32.60;;;18.40;;
41305;SDS011;27051;50.376;19.152;2023-02-13T11:04:12;43.80;;;24.40;;
41305;SDS011;27051;50.376;19.152;2023-02-13T11:07:13;43.90;;;23.50;;
41305;SDS011;27051;50.376;19.152;2023-02-13T11:09:39;38.30;;;21.30;;
41305;SDS011;27051;50.376;19.152;2023-02-13T11:12:27;42.20;;;23.10;;
41305;SDS011;27051;50.376;19.152;2023-02-13T11:14:56;41.50;;;23.50;;
41305;SDS011;27051;50.376;19.152;2023-02-13T11:17:24;40.90;;;23.50;;
41305;SDS011;27051;50.376;19.152;2023-02-13T11:19:54;44.90;;;25.00;;
41305;SDS011;27051;50.376;19.152;2023-02-13T11:25:00;46.80;;;24.80;;
41305;SDS011;27051;50.376;19.152;2023-02-13T11:27:34;42.20;;;24.10;;
41305;SDS011;27051;50.376;19.152;2023-02-13T11:30:04;42.00;;;23.10;;
41305;SDS011;27051;50.376;19.152;2023-02-13T11:32:33;42.20;;;24.20;;
41305;SDS011;27051;50.376;19.152;2023-02-13T11:35:16;40.20;;;22.30;;
41305;SDS011;27051;50.376;19.152;2023-02-13T11:38:05;37.30;;;20.50;;
41305;SDS011;27051;50.376;19.152;2023-02-13T11:40:38;40.50;;;22.20;;
41305;SDS011;27051;50.376;19.152;2023-02-13T11:43:04;36.90;;;21.10;;
41305;SDS011;27051;50.376;19.152;2023-02-13T11:45:32;38.20;;;20.60;;
41305;SDS011;27051;50.376;19.152;2023-02-13T11:47:58;38.50;;;21.50;;
41305;SDS011;27051;50.376;19.152;2023-02-13T11:52:54;39.00;;;19.90;;
41305;SDS011;27051;50.376;19.152;2023-02-13T11:55:24;32.80;;;17.90;;
41305;SDS011;27051;50.376;19.152;2023-02-13T11:57:55;35.20;;;18.40;;
41305;SDS011;27051;50.376;19.152;2023-02-13T12:00:42;34.00;;;18.60;;
41305;SDS011;27051;50.376;19.152;2023-02-13T12:06:00;38.00;;;19.60;;
41305;SDS011;27051;50.376;19.152;2023-02-13T12:08:44;38.50;;;20.20;;
41305;SDS011;27051;50.376;19.152;2023-02-13T12:13:49;32.60;;;16.90;;
41305;SDS011;27051;50.376;19.152;2023-02-13T12:18:57;39.90;;;21.40;;
41305;SDS011;27051;50.376;19.152;2023-02-13T12:21:43;51.70;;;27.10;;
41305;SDS011;27051;50.376;19.152;2023-02-13T12:24:40;48.40;;;25.20;;
41305;SDS011;27051;50.376;19.152;2023-02-13T12:36:13;28.20;;;16.40;;
41305;SDS011;27051;50.376;19.152;2023-02-13T12:47:09;33.30;;;19.30;;
41305;SDS011;27051;50.376;19.152;2023-02-13T12:49:48;38.60;;;20.20;;
41305;SDS011;27051;50.376;19.152;2023-02-13T12:54:50;36.90;;;21.50;;
41305;SDS011;27051;50.376;19.152;2023-02-13T12:59:59;35.20;;;17.90;;
41305;SDS011;27051;50.376;19.152;2023-02-13T13:05:02;38.10;;;21.30;;
41305;SDS011;27051;50.376;19.152;2023-02-13T13:13:11;44.70;;;23.30;;
41305;SDS011;27051;50.376;19.152;2023-02-13T13:18:22;49.10;;;24.40;;
41305;SDS011;27051;50.376;19.152;2023-02-13T13:20:53;43.00;;;20.60;;
41305;SDS011;27051;50.376;19.152;2023-02-13T13:26:19;35.00;;;17.00;;
41305;SDS011;27051;50.376;19.152;2023-02-13T13:28:54;37.20;;;18.80;;
41305;SDS011;27051;50.376;19.152;2023-02-13T13:31:22;31.70;;;16.60;;
41305;SDS011;27051;50.376;19.152;2023-02-13T13:33:51;32.20;;;16.90;;
41305;SDS011;27051;50.376;19.152;2023-02-13T13:39:05;42.90;;;19.20;;
41305;SDS011;27051;50.376;19.152;2023-02-13T13:44:47;28.70;;;15.50;;
41305;SDS011;27051;50.376;19.152;2023-02-13T13:50:16;25.30;;;12.30;;
41305;SDS011;27051;50.376;19.152;2023-02-13T13:53:04;21.40;;;10.60;;
41305;SDS011;27051;50.376;19.152;2023-02-13T13:56:00;217.80;;;125.10;;
41305;SDS011;27051;50.376;19.152;2023-02-13T13:58:43;17.60;;;7.70;;
41305;SDS011;27051;50.376;19.152;2023-02-13T14:03:41;18.80;;;8.20;;
41305;SDS011;27051;50.376;19.152;2023-02-13T14:06:10;12.90;;;6.40;;
41305;SDS011;27051;50.376;19.152;2023-02-13T14:11:05;16.90;;;7.30;;
41305;SDS011;27051;50.376;19.152;2023-02-13T14:13:51;18.60;;;7.20;;
41305;SDS011;27051;50.376;19.152;2023-02-13T14:16:37;20.40;;;9.70;;
41305;SDS011;27051;50.376;19.152;2023-02-13T14:19:21;26.50;;;11.50;;
41305;SDS011;27051;50.376;19.152;2023-02-13T14:24:55;17.20;;;7.90;;
41305;SDS011;27051;50.376;19.152;2023-02-13T14:27:24;21.80;;;9.70;;
41305;SDS011;27051;50.376;19.152;2023-02-13T14:29:56;17.20;;;7.30;;
41305;SDS011;27051;50.376;19.152;2023-02-13T14:32:33;17.60;;;6.80;;
41305;SDS011;27051;50.376;19.152;2023-02-13T14:35:03;16.00;;;6.70;;
41305;SDS011;27051;50.376;19.152;2023-02-13T14:37:52;10.90;;;5.10;;
41305;SDS011;27051;50.376;19.152;2023-02-13T14:42:47;17.40;;;7.20;;
41305;SDS011;27051;50.376;19.152;2023-02-13T14:45:20;18.90;;;7.80;;
41305;SDS011;27051;50.376;19.152;2023-02-13T14:47:53;19.60;;;8.70;;
41305;SDS011;27051;50.376;19.152;2023-02-13T14:50:29;12.40;;;5.70;;
41305;SDS011;27051;50.376;19.152;2023-02-13T14:53:03;15.80;;;7.00;;
41305;SDS011;27051;50.376;19.152;2023-02-13T14:55:40;17.40;;;7.90;;
41305;SDS011;27051;50.376;19.152;2023-02-13T15:00:52;9.80;;;4.80;;
41305;SDS011;27051;50.376;19.152;2023-02-13T15:03:27;9.80;;;5.20;;
41305;SDS011;27051;50.376;19.152;2023-02-13T15:06:00;11.30;;;5.40;;
41305;SDS011;27051;50.376;19.152;2023-02-13T15:08:31;9.60;;;4.80;;
41305;SDS011;27051;50.376;19.152;2023-02-13T15:13:34;10.60;;;4.90;;
41305;SDS011;27051;50.376;19.152;2023-02-13T15:16:02;7.90;;;4.50;;
41305;SDS011;27051;50.376;19.152;2023-02-13T15:21:09;10.70;;;5.20;;
41305;SDS011;27051;50.376;19.152;2023-02-13T15:23:40;12.30;;;4.40;;
41305;SDS011;27051;50.376;19.152;2023-02-13T15:26:07;10.80;;;4.60;;
41305;SDS011;27051;50.376;19.152;2023-02-13T15:28:34;13.30;;;4.70;;
41305;SDS011;27051;50.376;19.152;2023-02-13T15:31:02;12.80;;;6.30;;
41305;SDS011;27051;50.376;19.152;2023-02-13T15:33:48;14.70;;;6.30;;
41305;SDS011;27051;50.376;19.152;2023-02-13T15:36:19;18.70;;;6.90;;
41305;SDS011;27051;50.376;19.152;2023-02-13T15:38:47;35.70;;;17.00;;
41305;SDS011;27051;50.376;19.152;2023-02-13T15:41:20;16.60;;;8.10;;
41305;SDS011;27051;50.376;19.152;2023-02-13T15:43:52;10.30;;;5.20;;
41305;SDS011;27051;50.376;19.152;2023-02-13T15:46:29;13.90;;;6.20;;
41305;SDS011;27051;50.376;19.152;2023-02-13T15:48:58;13.30;;;6.60;;
41305;SDS011;27051;50.376;19.152;2023-02-13T15:51:29;13.00;;;6.00;;
41305;SDS011;27051;50.376;19.152;2023-02-13T15:53:56;13.80;;;6.00;;
41305;SDS011;27051;50.376;19.152;2023-02-13T15:56:25;12.60;;;6.30;;
41305;SDS011;27051;50.376;19.152;2023-02-13T15:58:55;14.50;;;6.40;;
41305;SDS011;27051;50.376;19.152;2023-02-13T16:01:22;11.90;;;5.70;;
41305;SDS011;27051;50.376;19.152;2023-02-13T16:03:50;16.70;;;7.20;;
41305;SDS011;27051;50.376;19.152;2023-02-13T16:06:23;17.30;;;7.90;;
41305;SDS011;27051;50.376;19.152;2023-02-13T16:08:53;25.70;;;10.30;;
41305;SDS011;27051;50.376;19.152;2023-02-13T16:11:22;26.60;;;10.80;;
41305;SDS011;27051;50.376;19.152;2023-02-13T16:16:47;29.60;;;12.00;;
41305;SDS011;27051;50.376;19.152;2023-02-13T16:20:00;21.30;;;9.50;;
41305;SDS011;27051;50.376;19.152;2023-02-13T16:22:36;16.80;;;7.40;;
41305;SDS011;27051;50.376;19.152;2023-02-13T16:27:56;16.20;;;7.10;;
41305;SDS011;27051;50.376;19.152;2023-02-13T16:30:32;15.40;;;7.30;;
41305;SDS011;27051;50.376;19.152;2023-02-13T16:35:39;15.50;;;7.10;;
41305;SDS011;27051;50.376;19.152;2023-02-13T16:40:51;15.80;;;6.50;;
41305;SDS011;27051;50.376;19.152;2023-02-13T16:43:40;17.60;;;7.40;;
41305;SDS011;27051;50.376;19.152;2023-02-13T16:46:54;16.30;;;7.20;;
41305;SDS011;27051;50.376;19.152;2023-02-13T16:51:40;19.70;;;7.60;;
41305;SDS011;27051;50.376;19.152;2023-02-13T17:02:13;55.40;;;22.70;;
41305;SDS011;27051;50.376;19.152;2023-02-13T17:07:25;43.20;;;17.20;;
41305;SDS011;27051;50.376;19.152;2023-02-13T17:12:27;40.40;;;17.10;;
41305;SDS011;27051;50.376;19.152;2023-02-13T17:14:56;41.70;;;19.70;;
41305;SDS011;27051;50.376;19.152;2023-02-13T17:17:24;39.40;;;18.40;;
41305;SDS011;27051;50.376;19.152;2023-02-13T17:19:53;37.70;;;17.80;;
41305;SDS011;27051;50.376;19.152;2023-02-13T17:25:00;36.40;;;19.10;;
41305;SDS011;27051;50.376;19.152;2023-02-13T17:27:40;42.10;;;20.00;;
41305;SDS011;27051;50.376;19.152;2023-02-13T17:30:11;43.70;;;21.80;;
41305;SDS011;27051;50.376;19.152;2023-02-13T17:32:38;43.00;;;21.70;;
41305;SDS011;27051;50.376;19.152;2023-02-13T17:35:04;47.50;;;23.50;;